createdAt,value
2023-05-16T00:02:24.104Z,98674.74
2023-05-16T00:04:51.891Z,98673.30
2023-05-16T00:07:18.664Z,98671.72
2023-05-16T00:09:45.836Z,98670.92
2023-05-16T00:12:13.421Z,98661.00
2023-05-16T00:14:40.080Z,98658.34
2023-05-16T00:17:12.145Z,98664.27
2023-05-16T00:19:39.331Z,98660.13
2023-05-16T00:22:06.366Z,98655.66
2023-05-16T00:24:34.170Z,98651.02
2023-05-16T00:27:01.071Z,98650.52
2023-05-16T00:29:27.777Z,98649.71
2023-05-16T00:31:54.502Z,98657.09
2023-05-16T00:34:22.836Z,98656.01
2023-05-16T00:36:52.756Z,98653.27
2023-05-16T00:39:19.482Z,98648.41
2023-05-16T00:41:46.689Z,98647.52
2023-05-16T00:44:13.581Z,98654.04
2023-05-16T00:46:40.306Z,98660.11
2023-05-16T00:49:07.959Z,98660.46
2023-05-16T00:51:34.744Z,98648.44
2023-05-16T00:54:02.103Z,98645.03
2023-05-16T00:56:28.822Z,98642.86
2023-05-16T00:58:55.627Z,98640.40
2023-05-16T01:01:23.781Z,98643.46
2023-05-16T01:03:51.904Z,98640.55
2023-05-16T01:06:19.101Z,98634.57
2023-05-16T01:08:45.869Z,98632.70
2023-05-16T01:11:39.562Z,98638.10
2023-05-16T01:14:13.190Z,98643.45
2023-05-16T01:16:44.766Z,98637.09
2023-05-16T01:19:38.820Z,98639.96
2023-05-16T01:22:16.395Z,98638.50
2023-05-16T01:24:49.073Z,98640.06
2023-05-16T01:27:15.851Z,98642.70
2023-05-16T01:29:42.570Z,98643.93
2023-05-16T01:32:09.939Z,98642.85
2023-05-16T01:34:36.612Z,98646.14
2023-05-16T01:37:24.782Z,98649.32
2023-05-16T01:39:59.716Z,98651.90
2023-05-16T01:42:27.785Z,98652.23
2023-05-16T01:45:00.229Z,98651.15
2023-05-16T01:47:27.739Z,98649.88
2023-05-16T01:49:58.450Z,98653.95
2023-05-16T01:52:32.464Z,98662.33
2023-05-16T01:55:00.797Z,98667.89
2023-05-16T01:57:27.629Z,98672.53
2023-05-16T01:59:54.361Z,98673.28
2023-05-16T02:02:21.080Z,98677.17
2023-05-16T02:04:47.847Z,98675.26
2023-05-16T02:07:15.396Z,98675.36
2023-05-16T02:09:42.150Z,98676.83
2023-05-16T02:12:08.862Z,98675.88
2023-05-16T02:14:35.947Z,98673.24
2023-05-16T02:17:02.876Z,98673.32
2023-05-16T02:19:29.652Z,98671.75
2023-05-16T02:21:56.791Z,98667.83
2023-05-16T02:24:23.531Z,98670.91
2023-05-16T02:26:50.311Z,98664.11
2023-05-16T02:29:17.024Z,98664.65
2023-05-16T02:31:43.839Z,98662.34
2023-05-16T02:34:11.029Z,98664.63
2023-05-16T02:36:37.787Z,98676.20
2023-05-16T02:39:04.597Z,98680.15
2023-05-16T02:41:31.828Z,98681.08
2023-05-16T02:43:58.981Z,98683.31
2023-05-16T02:46:28.132Z,98681.45
2023-05-16T02:48:55.063Z,98682.16
2023-05-16T02:51:24.201Z,98682.21
2023-05-16T02:53:51.180Z,98686.38
2023-05-16T02:56:18.033Z,98683.22
2023-05-16T02:58:49.832Z,98681.92
2023-05-16T03:01:16.783Z,98688.84
2023-05-16T03:03:43.653Z,98690.28
2023-05-16T03:06:10.681Z,98694.81
2023-05-16T03:08:38.282Z,98694.59
2023-05-16T03:11:05.052Z,98698.22
2023-05-16T03:13:31.920Z,98697.73
2023-05-16T03:15:59.039Z,98701.55
2023-05-16T03:18:25.720Z,98701.41
2023-05-16T03:20:53.190Z,98694.08
2023-05-16T03:23:20.952Z,98689.80
2023-05-16T03:25:48.017Z,98695.98
2023-05-16T03:28:15.432Z,98700.32
2023-05-16T03:30:42.466Z,98702.96
2023-05-16T03:33:09.398Z,98707.28
2023-05-16T03:35:36.248Z,98712.26
2023-05-16T03:38:03.346Z,98713.64
2023-05-16T03:40:30.091Z,98713.21
2023-05-16T03:42:56.963Z,98712.60
2023-05-16T03:45:23.688Z,98711.14
2023-05-16T03:47:50.985Z,98715.80
2023-05-16T03:50:17.936Z,98716.64
2023-05-16T03:52:44.775Z,98719.34
2023-05-16T03:55:14.334Z,98718.27
2023-05-16T03:57:43.374Z,98715.73
2023-05-16T04:00:12.743Z,98712.54
2023-05-16T04:02:44.105Z,98716.13
2023-05-16T04:05:11.648Z,98708.79
2023-05-16T04:07:38.402Z,98710.26
2023-05-16T04:10:05.451Z,98708.27
2023-05-16T04:12:32.185Z,98707.20
2023-05-16T04:14:59.002Z,98705.02
2023-05-16T04:17:25.762Z,98704.10
2023-05-16T04:19:52.536Z,98705.46
2023-05-16T04:22:21.348Z,98708.57
2023-05-16T04:24:48.147Z,98711.42
2023-05-16T04:27:14.957Z,98714.13
2023-05-16T04:29:41.725Z,98713.85
2023-05-16T04:32:08.425Z,98712.54
2023-05-16T04:34:39.779Z,98712.73
2023-05-16T04:37:07.682Z,98713.00
2023-05-16T04:39:35.446Z,98705.86
2023-05-16T04:42:04.476Z,98707.80
2023-05-16T04:44:31.876Z,98711.38
2023-05-16T04:46:58.863Z,98717.65
2023-05-16T04:49:25.837Z,98722.08
2023-05-16T04:51:52.533Z,98723.80
2023-05-16T04:54:19.683Z,98726.61
2023-05-16T04:56:46.732Z,98724.37
2023-05-16T04:59:13.393Z,98728.48
2023-05-16T05:01:40.235Z,98728.02
2023-05-16T05:04:07.017Z,98723.73
2023-05-16T05:06:33.815Z,98724.54
2023-05-16T05:09:00.698Z,98721.28
2023-05-16T05:11:27.468Z,98715.73
2023-05-16T05:13:54.237Z,98709.70
2023-05-16T05:16:21.116Z,98706.91
2023-05-16T05:18:48.002Z,98708.45
2023-05-16T05:21:14.840Z,98701.52
2023-05-16T05:23:41.534Z,98696.72
2023-05-16T05:26:08.301Z,98692.04
2023-05-16T05:28:35.144Z,98692.13
2023-05-16T05:31:01.896Z,98693.12
2023-05-16T05:33:29.766Z,98690.69
2023-05-16T05:35:56.867Z,98690.02
2023-05-16T05:38:23.958Z,98687.25
2023-05-16T05:40:51.129Z,98687.25
2023-05-16T05:43:17.940Z,98685.17
2023-05-16T05:45:44.747Z,98690.73
2023-05-16T05:48:11.645Z,98688.70
2023-05-16T05:50:38.454Z,98694.24
2023-05-16T05:53:05.149Z,98695.61
2023-05-16T05:55:32.044Z,98696.47
2023-05-16T05:57:58.790Z,98706.02
2023-05-16T06:00:26.117Z,98709.84
2023-05-16T06:02:53.094Z,98707.54
2023-05-16T06:05:20.083Z,98706.21
2023-05-16T06:07:47.081Z,98707.05
2023-05-16T06:10:13.800Z,98706.73
2023-05-16T06:12:40.532Z,98700.70
2023-05-16T06:15:08.101Z,98690.83
2023-05-16T06:17:34.878Z,98689.20
2023-05-16T06:20:01.849Z,98689.73
2023-05-16T06:22:28.625Z,98699.54
2023-05-16T06:24:55.369Z,98692.78
2023-05-16T06:27:22.639Z,98694.89
2023-05-16T06:29:49.373Z,98699.84
2023-05-16T06:32:16.191Z,98704.54
2023-05-16T06:34:43.140Z,98704.41
2023-05-16T06:37:09.942Z,98709.16
2023-05-16T06:39:36.877Z,98711.31
2023-05-16T06:42:03.882Z,98709.52
2023-05-16T06:44:32.081Z,98716.59
2023-05-16T06:46:59.070Z,98719.17
2023-05-16T06:49:25.863Z,98725.57
2023-05-16T06:51:52.607Z,98738.56
2023-05-16T06:54:19.340Z,98744.54
2023-05-16T06:56:46.072Z,98744.63
2023-05-16T06:59:12.888Z,98747.36
2023-05-16T07:01:39.712Z,98748.86
2023-05-16T07:04:06.786Z,98757.14
2023-05-16T07:06:33.883Z,98764.14
2023-05-16T07:09:00.692Z,98764.49
2023-05-16T07:11:27.519Z,98766.70
2023-05-16T07:13:54.365Z,98771.52
2023-05-16T07:16:21.169Z,98776.86
2023-05-16T07:18:50.098Z,98778.90
2023-05-16T07:21:16.877Z,98783.74
2023-05-16T07:23:43.617Z,98787.60
2023-05-16T07:26:10.603Z,98790.31
2023-05-16T07:28:37.367Z,98795.95
2023-05-16T07:31:04.096Z,98796.06
2023-05-16T07:33:30.785Z,98791.65
2023-05-16T07:36:08.056Z,98786.85
2023-05-16T07:38:43.238Z,98787.23
2023-05-16T07:41:10.029Z,98787.44
2023-05-16T07:43:36.982Z,98785.23
2023-05-16T07:46:03.999Z,98788.90
2023-05-16T07:48:31.040Z,98785.70
2023-05-16T07:50:57.878Z,98786.83
2023-05-16T07:53:25.067Z,98791.17
2023-05-16T07:55:51.882Z,98793.61
2023-05-16T07:58:18.646Z,98800.80
2023-05-16T08:00:45.820Z,98800.83
2023-05-16T08:03:12.669Z,98804.90
2023-05-16T08:05:40.031Z,98805.16
2023-05-16T08:08:06.962Z,98804.87
2023-05-16T08:10:33.861Z,98802.02
2023-05-16T08:13:00.771Z,98807.72
2023-05-16T08:15:28.077Z,98806.26
2023-05-16T08:17:59.832Z,98804.41
2023-05-16T08:20:26.854Z,98805.52
2023-05-16T08:22:54.183Z,98804.64
2023-05-16T08:25:21.150Z,98809.31
2023-05-16T08:27:49.633Z,98815.19
2023-05-16T08:30:16.673Z,98816.95
2023-05-16T08:32:43.765Z,98814.99
2023-05-16T08:35:11.363Z,98821.90
2023-05-16T08:37:38.294Z,98819.26
2023-05-16T08:40:08.441Z,98818.70
2023-05-16T08:42:35.739Z,98820.09
2023-05-16T08:45:03.380Z,98818.21
2023-05-16T08:47:31.295Z,98813.12
2023-05-16T08:49:58.310Z,98816.27
2023-05-16T08:52:30.046Z,98824.41
2023-05-16T08:55:09.262Z,98823.75
2023-05-16T08:57:37.793Z,98826.45
2023-05-16T09:00:13.565Z,98830.65
2023-05-16T09:02:41.695Z,98832.67
2023-05-16T09:05:10.168Z,98825.08
2023-05-16T09:07:37.416Z,98815.71
2023-05-16T09:10:06.939Z,98819.08
2023-05-16T09:12:34.575Z,98822.40
2023-05-16T09:15:06.204Z,98825.39
2023-05-16T09:17:42.240Z,98828.98
2023-05-16T09:20:11.217Z,98826.17
2023-05-16T09:22:38.562Z,98824.45
2023-05-16T09:25:08.627Z,98825.55
2023-05-16T09:27:40.869Z,98830.56
2023-05-16T09:30:08.566Z,98829.42
2023-05-16T09:32:35.505Z,98824.95
2023-05-16T09:35:02.502Z,98829.44
2023-05-16T09:37:29.341Z,98827.38
2023-05-16T09:39:56.174Z,98823.01
2023-05-16T09:42:23.365Z,98820.42
2023-05-16T09:44:51.627Z,98822.54
2023-05-16T09:47:19.099Z,98826.70
2023-05-16T09:49:49.121Z,98831.20
2023-05-16T09:52:16.642Z,98829.83
2023-05-16T09:54:43.504Z,98830.23
2023-05-16T09:57:10.594Z,98829.95
2023-05-16T09:59:38.563Z,98828.34
2023-05-16T10:02:06.441Z,98833.78
2023-05-16T10:04:35.162Z,98837.81
2023-05-16T10:07:05.624Z,98833.98
2023-05-16T10:09:33.181Z,98834.27
2023-05-16T10:12:04.185Z,98832.73
2023-05-16T10:14:34.606Z,98833.45
2023-05-16T10:17:01.558Z,98833.73
2023-05-16T10:19:28.768Z,98832.84
2023-05-16T10:22:01.135Z,98829.36
2023-05-16T10:24:32.061Z,98826.54
2023-05-16T10:26:58.869Z,98823.30
2023-05-16T10:29:26.160Z,98823.91
2023-05-16T10:31:53.413Z,98829.16
2023-05-16T10:34:20.409Z,98827.52
2023-05-16T10:36:48.108Z,98827.42
2023-05-16T10:39:15.473Z,98833.55
2023-05-16T10:41:42.277Z,98834.52
2023-05-16T10:44:13.923Z,98836.89
2023-05-16T10:46:40.847Z,98841.65
2023-05-16T10:49:24.120Z,98845.23
2023-05-16T10:52:07.588Z,98843.92
2023-05-16T10:54:35.561Z,98839.59
2023-05-16T10:57:10.300Z,98837.30
2023-05-16T10:59:48.155Z,98841.67
2023-05-16T11:02:41.700Z,98846.10
2023-05-16T11:05:09.496Z,98844.15
2023-05-16T11:07:39.417Z,98843.91
2023-05-16T11:10:06.318Z,98841.88
2023-05-16T11:12:37.451Z,98839.13
2023-05-16T11:15:17.861Z,98833.93
2023-05-16T11:17:46.187Z,98828.60
2023-05-16T11:20:26.194Z,98832.92
2023-05-16T11:23:01.692Z,98834.98
2023-05-16T11:25:36.272Z,98836.77
2023-05-16T11:28:03.174Z,98838.47
2023-05-16T11:30:29.959Z,98839.90
2023-05-16T11:32:56.794Z,98847.40
2023-05-16T11:35:23.679Z,98843.86
2023-05-16T11:37:50.714Z,98840.89
2023-05-16T11:40:17.789Z,98843.55
2023-05-16T11:42:48.392Z,98849.16
2023-05-16T11:45:25.646Z,98855.70
2023-05-16T11:47:52.872Z,98860.11
2023-05-16T11:50:21.198Z,98861.59
2023-05-16T11:52:50.483Z,98853.76
2023-05-16T11:55:28.066Z,98849.87
2023-05-16T11:58:05.570Z,98854.24
2023-05-16T12:00:32.788Z,98852.39
2023-05-16T12:03:05.564Z,98856.23
2023-05-16T12:05:34.000Z,98857.63
2023-05-16T12:08:02.814Z,98860.56
2023-05-16T12:10:31.498Z,98862.25
2023-05-16T12:12:58.510Z,98867.55
2023-05-16T12:15:25.738Z,98868.42
2023-05-16T12:17:52.828Z,98868.06
2023-05-16T12:20:21.776Z,98870.65
2023-05-16T12:22:48.575Z,98868.15
2023-05-16T12:25:28.845Z,98863.05
2023-05-16T12:27:58.108Z,98863.38
2023-05-16T12:30:25.712Z,98864.68
2023-05-16T12:32:55.928Z,98865.25
2023-05-16T12:35:23.527Z,98865.45
2023-05-16T12:37:51.767Z,98863.88
2023-05-16T12:40:20.600Z,98860.27
2023-05-16T12:42:52.129Z,98858.36
2023-05-16T12:45:19.032Z,98857.42
2023-05-16T12:47:46.292Z,98859.02
2023-05-16T12:50:14.515Z,98857.37
2023-05-16T12:52:51.351Z,98853.46
2023-05-16T12:55:18.914Z,98855.14
2023-05-16T12:57:47.723Z,98861.02
2023-05-16T13:00:16.050Z,98856.55
2023-05-16T13:02:43.026Z,98859.23
2023-05-16T13:05:10.474Z,98858.63
2023-05-16T13:07:39.759Z,98855.04
2023-05-16T13:10:12.797Z,98851.88
2023-05-16T13:12:40.256Z,98852.14
2023-05-16T13:15:11.762Z,98852.59
2023-05-16T13:17:38.990Z,98859.73
2023-05-16T13:20:10.487Z,98861.49
2023-05-16T13:22:37.690Z,98861.82
2023-05-16T13:25:06.260Z,98862.80
2023-05-16T13:27:33.408Z,98862.98
2023-05-16T13:30:00.449Z,98867.90
2023-05-16T13:32:27.382Z,98868.02
2023-05-16T13:34:54.540Z,98863.80
2023-05-16T13:37:21.553Z,98864.19
2023-05-16T13:39:48.372Z,98863.64
2023-05-16T13:42:15.157Z,98868.33
2023-05-16T13:44:42.479Z,98869.91
2023-05-16T13:47:09.246Z,98868.55
2023-05-16T13:49:36.421Z,98869.15
2023-05-16T13:52:03.320Z,98874.65
2023-05-16T13:54:30.129Z,98873.50
2023-05-16T13:56:57.721Z,98874.70
2023-05-16T13:59:44.917Z,98874.27
2023-05-16T14:02:11.506Z,98875.09
2023-05-16T14:04:38.484Z,98874.23
2023-05-16T14:07:05.346Z,98872.36
2023-05-16T14:09:35.275Z,98872.45
2023-05-16T14:12:05.104Z,98877.17
2023-05-16T14:14:32.096Z,98873.74
2023-05-16T14:16:59.601Z,98876.89
2023-05-16T14:19:26.778Z,98878.40
2023-05-16T14:21:53.648Z,98883.83
2023-05-16T14:24:20.457Z,98882.40
2023-05-16T14:26:47.261Z,98881.67
2023-05-16T14:29:14.299Z,98882.38
2023-05-16T14:31:41.393Z,98885.48
2023-05-16T14:34:08.237Z,98886.88
2023-05-16T14:36:35.283Z,98889.14
2023-05-16T14:39:02.160Z,98888.17
2023-05-16T14:41:28.935Z,98887.09
2023-05-16T14:43:56.201Z,98886.67
2023-05-16T14:46:23.097Z,98888.34
2023-05-16T14:48:50.081Z,98891.84
2023-05-16T14:51:16.919Z,98888.00
2023-05-16T14:53:46.063Z,98890.02
2023-05-16T14:56:13.650Z,98887.57
2023-05-16T14:58:40.729Z,98885.02
2023-05-16T15:01:07.825Z,98886.70
2023-05-16T15:03:46.957Z,98889.73
2023-05-16T15:06:20.919Z,98884.09
2023-05-16T15:08:47.741Z,98880.42
2023-05-16T15:11:15.032Z,98885.41
2023-05-16T15:13:41.853Z,98884.00
2023-05-16T15:16:08.812Z,98885.80
2023-05-16T15:18:35.809Z,98888.17
2023-05-16T15:21:02.668Z,98886.95
2023-05-16T15:23:29.782Z,98890.07
2023-05-16T15:25:56.732Z,98890.43
2023-05-16T15:28:23.582Z,98893.20
2023-05-16T15:30:51.281Z,98885.63
2023-05-16T15:33:18.251Z,98886.69
2023-05-16T15:35:45.320Z,98885.32
2023-05-16T15:38:12.104Z,98882.17
2023-05-16T15:40:39.003Z,98882.17
2023-05-16T15:43:05.944Z,98883.85
2023-05-16T15:45:33.104Z,98884.34
2023-05-16T15:48:00.188Z,98885.75
2023-05-16T15:50:27.243Z,98886.08
2023-05-16T15:52:54.178Z,98889.96
2023-05-16T15:55:22.056Z,98890.05
2023-05-16T15:57:49.060Z,98890.08
2023-05-16T16:00:16.431Z,98895.38
2023-05-16T16:02:45.365Z,98893.84
2023-05-16T16:05:12.558Z,98886.70
2023-05-16T16:07:39.441Z,98889.11
2023-05-16T16:10:06.890Z,98882.79
2023-05-16T16:12:33.825Z,98886.30
2023-05-16T16:15:02.365Z,98884.39
2023-05-16T16:17:29.372Z,98879.71
2023-05-16T16:19:56.260Z,98879.05
2023-05-16T16:22:23.438Z,98881.86
2023-05-16T16:24:50.355Z,98882.14
2023-05-16T16:27:17.190Z,98879.80
2023-05-16T16:29:43.993Z,98878.54
2023-05-16T16:32:10.898Z,98879.17
2023-05-16T16:34:37.724Z,98877.77
2023-05-16T16:37:05.129Z,98878.33
2023-05-16T16:39:33.239Z,98877.89
2023-05-16T16:42:00.420Z,98876.86
2023-05-16T16:44:27.272Z,98873.17
2023-05-16T16:46:54.156Z,98873.17
2023-05-16T16:49:21.032Z,98873.60
2023-05-16T16:51:47.895Z,98876.52
2023-05-16T16:54:14.742Z,98880.89
2023-05-16T16:56:41.932Z,98878.29
2023-05-16T16:59:08.869Z,98878.39
2023-05-16T17:01:36.050Z,98878.23
2023-05-16T17:04:03.120Z,98880.20
2023-05-16T17:06:30.292Z,98882.88
2023-05-16T17:08:57.645Z,98885.64
2023-05-16T17:11:24.460Z,98889.32
2023-05-16T17:13:51.855Z,98885.18
2023-05-16T17:16:18.787Z,98884.02
2023-05-16T17:18:45.823Z,98884.23
2023-05-16T17:21:13.219Z,98886.18
2023-05-16T17:23:43.230Z,98887.36
2023-05-16T17:26:13.498Z,98886.56
2023-05-16T17:28:40.385Z,98890.36
2023-05-16T17:31:07.226Z,98887.64
2023-05-16T17:33:34.080Z,98889.65
2023-05-16T17:36:01.652Z,98889.38
2023-05-16T17:38:28.478Z,98890.17
2023-05-16T17:40:55.363Z,98890.64
2023-05-16T17:43:22.832Z,98891.70
2023-05-16T17:45:49.623Z,98891.30
2023-05-16T17:48:16.562Z,98890.52
2023-05-16T17:50:43.737Z,98892.68
2023-05-16T17:53:11.087Z,98899.38
2023-05-16T17:55:38.448Z,98894.04
2023-05-16T17:58:06.733Z,98895.36
2023-05-16T18:00:33.638Z,98894.10
2023-05-16T18:03:00.706Z,98897.80
2023-05-16T18:05:28.744Z,98901.88
2023-05-16T18:07:55.936Z,98904.91
2023-05-16T18:10:22.828Z,98910.07
2023-05-16T18:12:49.717Z,98908.95
2023-05-16T18:15:16.851Z,98906.44
2023-05-16T18:17:43.667Z,98910.21
2023-05-16T18:20:11.689Z,98911.46
2023-05-16T18:22:38.936Z,98909.39
2023-05-16T18:25:06.529Z,98910.02
2023-05-16T18:27:33.613Z,98907.20
2023-05-16T18:30:00.659Z,98908.08
2023-05-16T18:32:27.739Z,98908.52
2023-05-16T18:34:55.002Z,98906.73
2023-05-16T18:37:21.928Z,98916.02
2023-05-16T18:39:49.025Z,98917.54
2023-05-16T18:42:18.850Z,98917.28
2023-05-16T18:44:45.839Z,98917.77
2023-05-16T18:47:12.919Z,98916.91
2023-05-16T18:49:39.737Z,98918.66
2023-05-16T18:52:09.889Z,98915.85
2023-05-16T18:54:37.592Z,98913.88
2023-05-16T18:57:08.696Z,98917.02
2023-05-16T18:59:36.043Z,98916.25
2023-05-16T19:02:04.572Z,98919.86
2023-05-16T19:04:31.571Z,98921.81
2023-05-16T19:06:58.714Z,98922.73
2023-05-16T19:09:25.560Z,98925.13
2023-05-16T19:11:52.444Z,98923.23
2023-05-16T19:14:19.280Z,98919.34
2023-05-16T19:16:46.349Z,98922.00
2023-05-16T19:19:13.289Z,98919.34
2023-05-16T19:21:40.177Z,98920.02
2023-05-16T19:24:07.619Z,98914.80
2023-05-16T19:26:34.515Z,98913.44
2023-05-16T19:29:01.370Z,98909.92
2023-05-16T19:31:28.322Z,98905.66
2023-05-16T19:33:55.201Z,98905.42
2023-05-16T19:36:22.577Z,98906.77
2023-05-16T19:38:49.529Z,98901.11
2023-05-16T19:41:16.865Z,98895.77
2023-05-16T19:43:43.677Z,98891.05
2023-05-16T19:46:10.547Z,98890.52
2023-05-16T19:48:37.588Z,98894.95
2023-05-16T19:51:04.629Z,98896.14
2023-05-16T19:53:31.482Z,98897.11
2023-05-16T19:55:58.268Z,98895.45
2023-05-16T19:58:26.062Z,98894.61
2023-05-16T20:00:53.435Z,98895.89
2023-05-16T20:03:20.300Z,98895.42
2023-05-16T20:05:47.209Z,98895.75
2023-05-16T20:08:14.217Z,98893.23
2023-05-16T20:10:41.135Z,98890.30
2023-05-16T20:13:08.368Z,98884.23
2023-05-16T20:15:35.741Z,98884.85
2023-05-16T20:18:02.705Z,98883.02
2023-05-16T20:20:30.029Z,98886.70
2023-05-16T20:22:56.873Z,98887.83
2023-05-16T20:25:23.731Z,98884.66
2023-05-16T20:27:50.497Z,98885.19
2023-05-16T20:30:17.302Z,98887.89
2023-05-16T20:32:44.125Z,98888.36
2023-05-16T20:35:11.432Z,98886.61
2023-05-16T20:37:38.407Z,98885.59
2023-05-16T20:40:06.332Z,98879.46
2023-05-16T20:42:33.389Z,98879.88
2023-05-16T20:45:00.775Z,98880.21
2023-05-16T20:47:28.255Z,98878.85
2023-05-16T20:49:55.144Z,98878.88
2023-05-16T20:52:23.277Z,98879.95
2023-05-16T20:54:51.471Z,98881.75
2023-05-16T20:57:19.426Z,98879.50
2023-05-16T20:59:46.243Z,98881.90
2023-05-16T21:02:13.067Z,98881.33
2023-05-16T21:04:40.068Z,98876.09
2023-05-16T21:07:08.322Z,98878.34
2023-05-16T21:09:37.792Z,98877.41
2023-05-16T21:12:05.087Z,98877.05
2023-05-16T21:14:31.917Z,98874.04
2023-05-16T21:16:58.714Z,98872.38
2023-05-16T21:19:25.690Z,98872.96
2023-05-16T21:21:52.511Z,98874.10
2023-05-16T21:24:19.531Z,98869.89
2023-05-16T21:26:46.331Z,98869.18
2023-05-16T21:29:13.140Z,98868.11
2023-05-16T21:31:40.310Z,98872.14
2023-05-16T21:34:08.521Z,98868.77
2023-05-16T21:36:35.941Z,98867.90
2023-05-16T21:39:02.814Z,98869.33
2023-05-16T21:41:29.604Z,98870.95
2023-05-16T21:43:56.367Z,98871.47
2023-05-16T21:46:23.176Z,98870.83
2023-05-16T21:48:50.199Z,98868.71
2023-05-16T21:51:17.122Z,98867.98
2023-05-16T21:53:45.254Z,98865.95
2023-05-16T21:56:12.598Z,98863.25
2023-05-16T21:58:39.550Z,98864.33
2023-05-16T22:01:06.467Z,98859.97
2023-05-16T22:03:33.517Z,98858.41
2023-05-16T22:06:01.228Z,98859.70
2023-05-16T22:08:27.951Z,98858.82
2023-05-16T22:10:54.810Z,98859.44
2023-05-16T22:13:21.641Z,98854.85
2023-05-16T22:16:03.218Z,98856.89
2023-05-16T22:18:32.905Z,98857.74
2023-05-16T22:21:00.014Z,98858.06
2023-05-16T22:23:26.753Z,98862.77
2023-05-16T22:25:53.602Z,98859.88
2023-05-16T22:28:20.836Z,98863.52
2023-05-16T22:30:47.588Z,98861.25
2023-05-16T22:33:14.431Z,98861.80
2023-05-16T22:35:41.233Z,98861.38
2023-05-16T22:38:07.945Z,98855.64
2023-05-16T22:40:34.715Z,98853.98
2023-05-16T22:43:01.445Z,98859.86
2023-05-16T22:45:28.286Z,98849.43
2023-05-16T22:47:55.340Z,98849.52
2023-05-16T22:50:22.093Z,98847.23
2023-05-16T22:52:48.898Z,98843.81
2023-05-16T22:55:15.661Z,98845.00
2023-05-16T22:57:42.918Z,98848.85
2023-05-16T23:00:10.192Z,98851.33
2023-05-16T23:02:37.041Z,98845.88
2023-05-16T23:05:04.239Z,98844.14
2023-05-16T23:07:31.180Z,98842.39
2023-05-16T23:09:57.973Z,98844.33
2023-05-16T23:12:25.388Z,98840.75
2023-05-16T23:14:52.205Z,98836.52
2023-05-16T23:17:18.946Z,98840.33
2023-05-16T23:19:45.876Z,98837.61
2023-05-16T23:22:12.648Z,98835.69
2023-05-16T23:24:39.455Z,98836.84
2023-05-16T23:27:06.191Z,98837.02
2023-05-16T23:29:32.949Z,98839.61
2023-05-16T23:31:59.841Z,98835.93
2023-05-16T23:34:26.576Z,98830.83
2023-05-16T23:36:53.329Z,98831.20
2023-05-16T23:39:21.462Z,98828.56
2023-05-16T23:41:48.258Z,98823.49
2023-05-16T23:44:14.950Z,98821.08
2023-05-16T23:46:41.916Z,98819.60
2023-05-16T23:49:08.692Z,98816.20
2023-05-16T23:51:45.296Z,98812.67
2023-05-16T23:54:22.268Z,98811.90
2023-05-16T23:56:49.002Z,98812.99
2023-05-16T23:59:16.418Z,98810.05
